sensor_id;sensor_type;location;lat;lon;timestamp;temperature;humidity
70051;SHT30;57391;51.306;22.680;2023-06-14T00:02:14;13.88;81.23
70051;SHT30;57391;51.306;22.680;2023-06-14T00:04:41;13.91;81.26
70051;SHT30;57391;51.306;22.680;2023-06-14T00:07:08;13.91;81.22
70051;SHT30;57391;51.306;22.680;2023-06-14T00:09:35;13.93;81.23
70051;SHT30;57391;51.306;22.680;2023-06-14T00:12:02;13.95;81.22
70051;SHT30;57391;51.306;22.680;2023-06-14T00:14:28;13.98;81.20
70051;SHT30;57391;51.306;22.680;2023-06-14T00:16:54;14.01;81.17
70051;SHT30;57391;51.306;22.680;2023-06-14T00:19:24;14.02;81.20
70051;SHT30;57391;51.306;22.680;2023-06-14T00:21:52;14.04;81.28
70051;SHT30;57391;51.306;22.680;2023-06-14T00:24:19;14.04;81.30
70051;SHT30;57391;51.306;22.680;2023-06-14T00:26:46;14.08;81.16
70051;SHT30;57391;51.306;22.680;2023-06-14T00:29:13;14.08;81.12
70051;SHT30;57391;51.306;22.680;2023-06-14T00:31:39;14.08;81.19
70051;SHT30;57391;51.306;22.680;2023-06-14T00:34:05;14.09;81.17
70051;SHT30;57391;51.306;22.680;2023-06-14T00:36:32;14.10;81.07
70051;SHT30;57391;51.306;22.680;2023-06-14T00:38:58;14.09;81.01
70051;SHT30;57391;51.306;22.680;2023-06-14T00:41:24;14.10;81.03
70051;SHT30;57391;51.306;22.680;2023-06-14T00:43:51;14.09;81.00
70051;SHT30;57391;51.306;22.680;2023-06-14T00:46:17;14.10;81.00
70051;SHT30;57391;51.306;22.680;2023-06-14T00:48:44;14.11;80.90
70051;SHT30;57391;51.306;22.680;2023-06-14T00:51:14;14.11;80.84
70051;SHT30;57391;51.306;22.680;2023-06-14T00:53:40;14.12;80.90
70051;SHT30;57391;51.306;22.680;2023-06-14T00:56:12;14.13;80.94
70051;SHT30;57391;51.306;22.680;2023-06-14T00:58:42;14.12;80.93
70051;SHT30;57391;51.306;22.680;2023-06-14T01:01:10;14.12;80.93
70051;SHT30;57391;51.306;22.680;2023-06-14T01:03:39;14.11;80.95
70051;SHT30;57391;51.306;22.680;2023-06-14T01:06:15;14.13;80.86
70051;SHT30;57391;51.306;22.680;2023-06-14T01:14:42;14.09;80.99
70051;SHT30;57391;51.306;22.680;2023-06-14T01:17:10;14.09;81.00
70051;SHT30;57391;51.306;22.680;2023-06-14T01:19:42;14.07;81.01
70051;SHT30;57391;51.306;22.680;2023-06-14T01:22:10;14.06;80.99
70051;SHT30;57391;51.306;22.680;2023-06-14T01:24:36;14.06;81.00
70051;SHT30;57391;51.306;22.680;2023-06-14T01:27:05;14.06;81.01
70051;SHT30;57391;51.306;22.680;2023-06-14T01:29:33;14.06;81.00
70051;SHT30;57391;51.306;22.680;2023-06-14T01:32:01;14.06;81.02
70051;SHT30;57391;51.306;22.680;2023-06-14T01:34:30;14.05;80.94
70051;SHT30;57391;51.306;22.680;2023-06-14T01:36:57;14.04;81.00
70051;SHT30;57391;51.306;22.680;2023-06-14T01:39:26;14.03;80.96
70051;SHT30;57391;51.306;22.680;2023-06-14T01:41:55;14.03;81.00
70051;SHT30;57391;51.306;22.680;2023-06-14T01:44:23;14.03;80.98
70051;SHT30;57391;51.306;22.680;2023-06-14T01:46:50;14.03;81.04
70051;SHT30;57391;51.306;22.680;2023-06-14T01:49:17;14.01;81.08
70051;SHT30;57391;51.306;22.680;2023-06-14T01:51:43;14.01;81.12
70051;SHT30;57391;51.306;22.680;2023-06-14T01:54:09;14.02;81.19
70051;SHT30;57391;51.306;22.680;2023-06-14T01:56:38;14.00;81.20
70051;SHT30;57391;51.306;22.680;2023-06-14T01:59:04;13.99;81.22
70051;SHT30;57391;51.306;22.680;2023-06-14T02:01:30;13.98;81.30
70051;SHT30;57391;51.306;22.680;2023-06-14T02:03:56;13.97;81.30
70051;SHT30;57391;51.306;22.680;2023-06-14T02:06:23;13.97;81.35
70051;SHT30;57391;51.306;22.680;2023-06-14T02:08:50;13.96;81.40
70051;SHT30;57391;51.306;22.680;2023-06-14T02:11:16;13.97;81.40
70051;SHT30;57391;51.306;22.680;2023-06-14T02:13:42;13.97;81.32
70051;SHT30;57391;51.306;22.680;2023-06-14T02:16:08;13.97;81.32
70051;SHT30;57391;51.306;22.680;2023-06-14T02:18:35;13.98;81.36
70051;SHT30;57391;51.306;22.680;2023-06-14T02:21:02;13.99;81.32
70051;SHT30;57391;51.306;22.680;2023-06-14T02:23:28;13.98;81.30
70051;SHT30;57391;51.306;22.680;2023-06-14T02:25:54;13.98;81.30
70051;SHT30;57391;51.306;22.680;2023-06-14T02:28:21;13.98;81.32
70051;SHT30;57391;51.306;22.680;2023-06-14T02:30:47;13.97;81.34
70051;SHT30;57391;51.306;22.680;2023-06-14T02:33:13;13.96;81.33
70051;SHT30;57391;51.306;22.680;2023-06-14T02:35:39;13.94;81.43
70051;SHT30;57391;51.306;22.680;2023-06-14T02:38:06;13.94;81.57
70051;SHT30;57391;51.306;22.680;2023-06-14T02:40:32;13.95;81.60
70051;SHT30;57391;51.306;22.680;2023-06-14T02:42:58;13.94;81.64
70051;SHT30;57391;51.306;22.680;2023-06-14T02:45:24;13.95;81.66
70051;SHT30;57391;51.306;22.680;2023-06-14T02:47:50;13.95;81.68
70051;SHT30;57391;51.306;22.680;2023-06-14T02:50:17;13.94;81.71
70051;SHT30;57391;51.306;22.680;2023-06-14T02:52:43;13.92;81.75
70051;SHT30;57391;51.306;22.680;2023-06-14T02:55:11;13.93;81.80
70051;SHT30;57391;51.306;22.680;2023-06-14T02:57:37;13.93;81.79
70051;SHT30;57391;51.306;22.680;2023-06-14T03:00:04;13.92;81.88
70051;SHT30;57391;51.306;22.680;2023-06-14T03:02:35;13.92;81.89
70051;SHT30;57391;51.306;22.680;2023-06-14T03:05:02;13.91;81.96
70051;SHT30;57391;51.306;22.680;2023-06-14T03:07:29;13.92;82.02
70051;SHT30;57391;51.306;22.680;2023-06-14T03:09:56;13.95;82.07
70051;SHT30;57391;51.306;22.680;2023-06-14T03:12:22;13.99;82.00
70051;SHT30;57391;51.306;22.680;2023-06-14T03:14:49;14.01;81.94
70051;SHT30;57391;51.306;22.680;2023-06-14T03:17:19;14.05;81.92
70051;SHT30;57391;51.306;22.680;2023-06-14T03:19:47;14.10;81.83
70051;SHT30;57391;51.306;22.680;2023-06-14T03:22:13;14.11;81.81
70051;SHT30;57391;51.306;22.680;2023-06-14T03:24:40;14.15;81.73
70051;SHT30;57391;51.306;22.680;2023-06-14T03:27:09;14.20;81.80
70051;SHT30;57391;51.306;22.680;2023-06-14T03:29:36;14.24;81.63
70051;SHT30;57391;51.306;22.680;2023-06-14T03:32:03;14.27;81.42
70051;SHT30;57391;51.306;22.680;2023-06-14T03:34:35;14.26;81.30
70051;SHT30;57391;51.306;22.680;2023-06-14T03:37:04;14.26;81.28
70051;SHT30;57391;51.306;22.680;2023-06-14T03:39:32;14.28;81.14
70051;SHT30;57391;51.306;22.680;2023-06-14T03:41:58;14.29;81.07
70051;SHT30;57391;51.306;22.680;2023-06-14T03:44:26;14.32;81.11
70051;SHT30;57391;51.306;22.680;2023-06-14T03:46:52;14.41;81.09
70051;SHT30;57391;51.306;22.680;2023-06-14T03:49:19;15.21;80.70
70051;SHT30;57391;51.306;22.680;2023-06-14T03:51:45;16.55;78.46
70051;SHT30;57391;51.306;22.680;2023-06-14T03:54:16;17.81;75.60
70051;SHT30;57391;51.306;22.680;2023-06-14T03:56:43;19.00;72.84
70051;SHT30;57391;51.306;22.680;2023-06-14T03:59:09;20.14;69.79
70051;SHT30;57391;51.306;22.680;2023-06-14T04:01:35;20.73;67.39
70051;SHT30;57391;51.306;22.680;2023-06-14T04:04:02;20.22;66.39
70051;SHT30;57391;51.306;22.680;2023-06-14T04:06:28;19.72;66.73
70051;SHT30;57391;51.306;22.680;2023-06-14T04:08:58;19.33;67.11
70051;SHT30;57391;51.306;22.680;2023-06-14T04:11:28;19.30;67.16
70051;SHT30;57391;51.306;22.680;2023-06-14T04:13:57;20.76;65.23
70051;SHT30;57391;51.306;22.680;2023-06-14T04:16:25;21.93;62.44
70051;SHT30;57391;51.306;22.680;2023-06-14T04:18:53;21.53;61.91
70051;SHT30;57391;51.306;22.680;2023-06-14T04:21:21;20.99;62.47
70051;SHT30;57391;51.306;22.680;2023-06-14T04:23:51;20.49;62.79
70051;SHT30;57391;51.306;22.680;2023-06-14T04:26:19;20.02;63.31
70051;SHT30;57391;51.306;22.680;2023-06-14T04:28:46;19.59;64.12
70051;SHT30;57391;51.306;22.680;2023-06-14T04:31:13;19.15;65.00
70051;SHT30;57391;51.306;22.680;2023-06-14T04:33:39;18.77;65.82
70051;SHT30;57391;51.306;22.680;2023-06-14T04:36:09;18.53;66.35
70051;SHT30;57391;51.306;22.680;2023-06-14T04:38:39;18.31;66.76
70051;SHT30;57391;51.306;22.680;2023-06-14T04:41:07;18.07;67.48
70051;SHT30;57391;51.306;22.680;2023-06-14T04:43:37;17.89;67.86
70051;SHT30;57391;51.306;22.680;2023-06-14T04:46:05;17.72;68.48
70051;SHT30;57391;51.306;22.680;2023-06-14T04:48:40;17.56;68.94
70051;SHT30;57391;51.306;22.680;2023-06-14T04:51:09;17.36;69.10
70051;SHT30;57391;51.306;22.680;2023-06-14T04:53:36;17.16;69.61
70051;SHT30;57391;51.306;22.680;2023-06-14T04:56:03;16.95;70.14
70051;SHT30;57391;51.306;22.680;2023-06-14T04:58:30;16.80;71.10
70051;SHT30;57391;51.306;22.680;2023-06-14T05:00:57;16.70;71.29
70051;SHT30;57391;51.306;22.680;2023-06-14T05:03:28;16.59;71.68
70051;SHT30;57391;51.306;22.680;2023-06-14T05:05:56;16.44;71.76
70051;SHT30;57391;51.306;22.680;2023-06-14T05:08:22;16.32;72.56
70051;SHT30;57391;51.306;22.680;2023-06-14T05:10:49;16.26;73.01
70051;SHT30;57391;51.306;22.680;2023-06-14T05:13:16;16.19;73.17
70051;SHT30;57391;51.306;22.680;2023-06-14T05:15:44;16.15;73.55
70051;SHT30;57391;51.306;22.680;2023-06-14T05:18:11;16.13;73.56
70051;SHT30;57391;51.306;22.680;2023-06-14T05:20:39;16.11;73.90
70051;SHT30;57391;51.306;22.680;2023-06-14T05:23:07;16.13;74.12
70051;SHT30;57391;51.306;22.680;2023-06-14T05:25:41;16.16;74.42
70051;SHT30;57391;51.306;22.680;2023-06-14T05:28:12;16.20;74.05
70051;SHT30;57391;51.306;22.680;2023-06-14T05:30:38;16.23;74.21
70051;SHT30;57391;51.306;22.680;2023-06-14T05:33:08;16.26;73.73
70051;SHT30;57391;51.306;22.680;2023-06-14T05:35:34;16.28;73.86
70051;SHT30;57391;51.306;22.680;2023-06-14T05:38:00;16.30;73.83
70051;SHT30;57391;51.306;22.680;2023-06-14T05:40:27;16.34;73.90
70051;SHT30;57391;51.306;22.680;2023-06-14T05:42:53;16.40;73.84
70051;SHT30;57391;51.306;22.680;2023-06-14T05:45:20;16.45;73.22
70051;SHT30;57391;51.306;22.680;2023-06-14T05:47:46;16.50;72.89
70051;SHT30;57391;51.306;22.680;2023-06-14T05:50:13;16.53;72.62
70051;SHT30;57391;51.306;22.680;2023-06-14T05:52:39;16.55;72.61
70051;SHT30;57391;51.306;22.680;2023-06-14T05:55:05;16.58;72.49
70051;SHT30;57391;51.306;22.680;2023-06-14T05:57:34;16.63;72.35
70051;SHT30;57391;51.306;22.680;2023-06-14T06:00:01;16.70;72.31
70051;SHT30;57391;51.306;22.680;2023-06-14T06:02:38;16.78;72.25
70051;SHT30;57391;51.306;22.680;2023-06-14T06:05:04;16.86;72.19
70051;SHT30;57391;51.306;22.680;2023-06-14T06:07:31;16.94;72.12
70051;SHT30;57391;51.306;22.680;2023-06-14T06:09:58;17.03;72.11
70051;SHT30;57391;51.306;22.680;2023-06-14T06:12:24;17.13;72.00
70051;SHT30;57391;51.306;22.680;2023-06-14T06:14:50;17.17;71.54
70051;SHT30;57391;51.306;22.680;2023-06-14T06:17:17;17.17;71.86
70051;SHT30;57391;51.306;22.680;2023-06-14T06:19:43;17.18;71.88
70051;SHT30;57391;51.306;22.680;2023-06-14T06:22:09;17.24;71.82
70051;SHT30;57391;51.306;22.680;2023-06-14T06:24:36;17.31;71.78
70051;SHT30;57391;51.306;22.680;2023-06-14T06:27:02;17.36;71.39
70051;SHT30;57391;51.306;22.680;2023-06-14T06:29:29;17.43;70.67
70051;SHT30;57391;51.306;22.680;2023-06-14T06:31:55;17.48;70.34
70051;SHT30;57391;51.306;22.680;2023-06-14T06:34:22;17.52;69.56
70051;SHT30;57391;51.306;22.680;2023-06-14T06:36:48;17.58;69.77
70051;SHT30;57391;51.306;22.680;2023-06-14T06:39:14;17.75;69.93
70051;SHT30;57391;51.306;22.680;2023-06-14T06:41:40;17.92;69.73
70051;SHT30;57391;51.306;22.680;2023-06-14T06:44:07;18.09;69.23
70051;SHT30;57391;51.306;22.680;2023-06-14T06:46:33;18.24;68.92
70051;SHT30;57391;51.306;22.680;2023-06-14T06:49:00;18.36;68.99
70051;SHT30;57391;51.306;22.680;2023-06-14T06:51:26;18.47;68.35
70051;SHT30;57391;51.306;22.680;2023-06-14T06:53:53;18.59;67.19
70051;SHT30;57391;51.306;22.680;2023-06-14T06:56:20;18.66;66.55
70051;SHT30;57391;51.306;22.680;2023-06-14T06:58:50;18.70;66.44
70051;SHT30;57391;51.306;22.680;2023-06-14T07:01:17;18.84;66.70
70051;SHT30;57391;51.306;22.680;2023-06-14T07:03:45;19.01;66.57
70051;SHT30;57391;51.306;22.680;2023-06-14T07:06:11;19.15;65.56
70051;SHT30;57391;51.306;22.680;2023-06-14T07:08:38;19.27;64.27
70051;SHT30;57391;51.306;22.680;2023-06-14T07:11:05;19.38;65.01
70051;SHT30;57391;51.306;22.680;2023-06-14T07:13:31;19.54;64.62
70051;SHT30;57391;51.306;22.680;2023-06-14T16:33:14;18.89;73.59
70051;SHT30;57391;51.306;22.680;2023-06-14T16:35:41;18.87;73.25
70051;SHT30;57391;51.306;22.680;2023-06-14T16:38:08;18.86;73.04
70051;SHT30;57391;51.306;22.680;2023-06-14T16:40:35;18.84;73.18
70051;SHT30;57391;51.306;22.680;2023-06-14T16:43:02;18.83;72.92
70051;SHT30;57391;51.306;22.680;2023-06-14T16:45:29;18.82;72.94
70051;SHT30;57391;51.306;22.680;2023-06-14T16:47:56;18.79;72.86
70051;SHT30;57391;51.306;22.680;2023-06-14T16:50:23;18.77;72.87
70051;SHT30;57391;51.306;22.680;2023-06-14T16:52:50;18.75;72.66
70051;SHT30;57391;51.306;22.680;2023-06-14T16:55:17;18.73;73.01
70051;SHT30;57391;51.306;22.680;2023-06-14T16:57:44;18.70;72.90
70051;SHT30;57391;51.306;22.680;2023-06-14T17:00:14;18.68;72.57
70051;SHT30;57391;51.306;22.680;2023-06-14T17:02:41;18.63;72.52
70051;SHT30;57391;51.306;22.680;2023-06-14T17:05:12;18.61;72.59
70051;SHT30;57391;51.306;22.680;2023-06-14T17:07:39;18.59;72.79
70051;SHT30;57391;51.306;22.680;2023-06-14T17:10:07;18.58;72.91
70051;SHT30;57391;51.306;22.680;2023-06-14T17:12:34;18.55;73.11
70051;SHT30;57391;51.306;22.680;2023-06-14T17:15:02;18.54;73.33
70051;SHT30;57391;51.306;22.680;2023-06-14T17:17:31;18.52;73.53
70051;SHT30;57391;51.306;22.680;2023-06-14T17:19:58;18.49;73.38
70051;SHT30;57391;51.306;22.680;2023-06-14T17:22:25;18.45;73.53
70051;SHT30;57391;51.306;22.680;2023-06-14T17:24:52;18.41;73.74
70051;SHT30;57391;51.306;22.680;2023-06-14T17:27:19;18.39;74.03
70051;SHT30;57391;51.306;22.680;2023-06-14T17:29:47;18.35;74.14
70051;SHT30;57391;51.306;22.680;2023-06-14T17:32:14;18.35;74.34
70051;SHT30;57391;51.306;22.680;2023-06-14T17:34:41;18.32;74.38
70051;SHT30;57391;51.306;22.680;2023-06-14T17:37:08;18.30;74.40
70051;SHT30;57391;51.306;22.680;2023-06-14T17:39:35;18.29;74.68
70051;SHT30;57391;51.306;22.680;2023-06-14T17:42:02;18.28;74.87
70051;SHT30;57391;51.306;22.680;2023-06-14T17:44:30;18.26;75.05
70051;SHT30;57391;51.306;22.680;2023-06-14T17:46:57;18.23;75.24
70051;SHT30;57391;51.306;22.680;2023-06-14T17:49:24;18.22;75.41
70051;SHT30;57391;51.306;22.680;2023-06-14T17:51:52;18.22;75.53
70051;SHT30;57391;51.306;22.680;2023-06-14T17:54:20;18.22;75.63
70051;SHT30;57391;51.306;22.680;2023-06-14T17:56:47;18.20;75.80
70051;SHT30;57391;51.306;22.680;2023-06-14T17:59:14;18.18;76.03
70051;SHT30;57391;51.306;22.680;2023-06-14T18:01:42;18.18;75.80
70051;SHT30;57391;51.306;22.680;2023-06-14T18:04:08;18.17;75.67
70051;SHT30;57391;51.306;22.680;2023-06-14T18:06:35;18.13;75.71
70051;SHT30;57391;51.306;22.680;2023-06-14T18:09:02;18.10;75.77
70051;SHT30;57391;51.306;22.680;2023-06-14T18:11:29;18.05;75.81
70051;SHT30;57391;51.306;22.680;2023-06-14T18:13:57;18.01;76.06
70051;SHT30;57391;51.306;22.680;2023-06-14T18:16:25;17.98;76.23
70051;SHT30;57391;51.306;22.680;2023-06-14T18:18:55;17.94;76.49
70051;SHT30;57391;51.306;22.680;2023-06-14T18:21:23;17.91;76.51
70051;SHT30;57391;51.306;22.680;2023-06-14T18:23:49;17.89;76.56
70051;SHT30;57391;51.306;22.680;2023-06-14T18:26:24;17.86;76.60
70051;SHT30;57391;51.306;22.680;2023-06-14T18:28:54;17.83;76.62
70051;SHT30;57391;51.306;22.680;2023-06-14T18:31:22;17.80;76.72
70051;SHT30;57391;51.306;22.680;2023-06-14T18:33:49;17.77;76.65
70051;SHT30;57391;51.306;22.680;2023-06-14T18:36:16;17.73;76.66
70051;SHT30;57391;51.306;22.680;2023-06-14T18:38:44;17.69;76.63
70051;SHT30;57391;51.306;22.680;2023-06-14T18:41:13;17.67;76.79
70051;SHT30;57391;51.306;22.680;2023-06-14T18:43:40;17.63;76.80
70051;SHT30;57391;51.306;22.680;2023-06-14T18:46:08;17.58;76.83
70051;SHT30;57391;51.306;22.680;2023-06-14T18:48:36;17.52;76.84
70051;SHT30;57391;51.306;22.680;2023-06-14T18:51:03;17.47;76.92
70051;SHT30;57391;51.306;22.680;2023-06-14T18:53:30;17.42;76.99
70051;SHT30;57391;51.306;22.680;2023-06-14T18:55:57;17.36;77.12
70051;SHT30;57391;51.306;22.680;2023-06-14T18:58:24;17.32;77.18
70051;SHT30;57391;51.306;22.680;2023-06-14T19:00:51;17.30;77.28
70051;SHT30;57391;51.306;22.680;2023-06-14T19:03:20;17.29;77.24
70051;SHT30;57391;51.306;22.680;2023-06-14T19:05:50;17.25;77.25
70051;SHT30;57391;51.306;22.680;2023-06-14T19:08:17;17.20;77.35
70051;SHT30;57391;51.306;22.680;2023-06-14T19:10:44;17.18;77.40
70051;SHT30;57391;51.306;22.680;2023-06-14T19:13:11;17.15;77.48
70051;SHT30;57391;51.306;22.680;2023-06-14T19:15:38;17.08;77.66
70051;SHT30;57391;51.306;22.680;2023-06-14T19:18:05;17.03;77.77
70051;SHT30;57391;51.306;22.680;2023-06-14T19:20:32;16.98;77.84
70051;SHT30;57391;51.306;22.680;2023-06-14T19:23:00;16.93;77.86
70051;SHT30;57391;51.306;22.680;2023-06-14T19:25:29;16.89;77.84
70051;SHT30;57391;51.306;22.680;2023-06-14T19:27:56;16.84;77.82
70051;SHT30;57391;51.306;22.680;2023-06-14T19:30:23;16.79;77.78
70051;SHT30;57391;51.306;22.680;2023-06-14T19:32:50;16.73;77.71
70051;SHT30;57391;51.306;22.680;2023-06-14T19:35:18;16.66;77.57
70051;SHT30;57391;51.306;22.680;2023-06-14T19:37:47;16.61;77.66
70051;SHT30;57391;51.306;22.680;2023-06-14T19:40:14;16.57;77.70
70051;SHT30;57391;51.306;22.680;2023-06-14T19:42:42;16.53;77.65
70051;SHT30;57391;51.306;22.680;2023-06-14T19:45:11;16.48;77.68
70051;SHT30;57391;51.306;22.680;2023-06-14T19:47:39;16.46;77.83
70051;SHT30;57391;51.306;22.680;2023-06-14T19:50:16;16.43;77.92
70051;SHT30;57391;51.306;22.680;2023-06-14T19:52:44;16.40;78.16
70051;SHT30;57391;51.306;22.680;2023-06-14T19:55:13;16.36;78.20
70051;SHT30;57391;51.306;22.680;2023-06-14T19:57:44;16.34;78.22
70051;SHT30;57391;51.306;22.680;2023-06-14T20:00:11;16.32;78.32
70051;SHT30;57391;51.306;22.680;2023-06-14T20:02:39;16.32;78.33
70051;SHT30;57391;51.306;22.680;2023-06-14T20:05:18;16.30;78.37
70051;SHT30;57391;51.306;22.680;2023-06-14T20:07:45;16.31;78.44
70051;SHT30;57391;51.306;22.680;2023-06-14T20:19:10;16.22;78.65
70051;SHT30;57391;51.306;22.680;2023-06-14T20:21:37;16.23;78.82
70051;SHT30;57391;51.306;22.680;2023-06-14T20:24:04;16.24;78.98
70051;SHT30;57391;51.306;22.680;2023-06-14T20:26:32;16.24;79.09
70051;SHT30;57391;51.306;22.680;2023-06-14T20:29:00;16.23;79.14
70051;SHT30;57391;51.306;22.680;2023-06-14T20:31:27;16.22;79.13
70051;SHT30;57391;51.306;22.680;2023-06-14T20:33:56;16.22;79.13
70051;SHT30;57391;51.306;22.680;2023-06-14T20:36:26;16.21;79.15
70051;SHT30;57391;51.306;22.680;2023-06-14T20:38:56;16.20;79.21
70051;SHT30;57391;51.306;22.680;2023-06-14T20:41:24;16.18;79.27
70051;SHT30;57391;51.306;22.680;2023-06-14T20:43:51;16.16;79.29
70051;SHT30;57391;51.306;22.680;2023-06-14T20:46:19;16.15;79.30
70051;SHT30;57391;51.306;22.680;2023-06-14T20:48:47;16.14;79.30
70051;SHT30;57391;51.306;22.680;2023-06-14T20:51:14;16.11;79.17
70051;SHT30;57391;51.306;22.680;2023-06-14T21:03:01;15.99;79.43
70051;SHT30;57391;51.306;22.680;2023-06-14T21:05:30;16.00;79.49
70051;SHT30;57391;51.306;22.680;2023-06-14T21:07:58;16.00;79.53
70051;SHT30;57391;51.306;22.680;2023-06-14T21:10:26;15.99;79.60
70051;SHT30;57391;51.306;22.680;2023-06-14T21:12:57;15.99;79.61
70051;SHT30;57391;51.306;22.680;2023-06-14T21:15:24;15.97;79.60
70051;SHT30;57391;51.306;22.680;2023-06-14T21:17:55;15.96;79.60
70051;SHT30;57391;51.306;22.680;2023-06-14T21:20:22;15.93;79.64
70051;SHT30;57391;51.306;22.680;2023-06-14T21:22:51;15.90;79.78
70051;SHT30;57391;51.306;22.680;2023-06-14T21:25:17;15.88;79.84
70051;SHT30;57391;51.306;22.680;2023-06-14T21:27:44;15.86;79.89
70051;SHT30;57391;51.306;22.680;2023-06-14T21:30:14;15.83;79.93
70051;SHT30;57391;51.306;22.680;2023-06-14T21:32:44;15.81;80.04
70051;SHT30;57391;51.306;22.680;2023-06-14T21:35:16;15.77;80.16
70051;SHT30;57391;51.306;22.680;2023-06-14T21:37:46;15.75;80.31
70051;SHT30;57391;51.306;22.680;2023-06-14T21:40:13;15.74;80.40
70051;SHT30;57391;51.306;22.680;2023-06-14T21:42:40;15.73;80.35
70051;SHT30;57391;51.306;22.680;2023-06-14T21:45:07;15.71;80.41
70051;SHT30;57391;51.306;22.680;2023-06-14T21:47:37;15.70;80.63
70051;SHT30;57391;51.306;22.680;2023-06-14T21:50:04;15.69;80.70
70051;SHT30;57391;51.306;22.680;2023-06-14T21:52:33;15.69;80.70
70051;SHT30;57391;51.306;22.680;2023-06-14T22:05:49;15.71;80.90
70051;SHT30;57391;51.306;22.680;2023-06-14T22:08:16;15.71;80.91
70051;SHT30;57391;51.306;22.680;2023-06-14T22:10:43;15.71;81.03
70051;SHT30;57391;51.306;22.680;2023-06-14T22:13:10;15.73;81.07
70051;SHT30;57391;51.306;22.680;2023-06-14T22:15:56;15.75;81.15
70051;SHT30;57391;51.306;22.680;2023-06-14T22:18:23;15.77;81.16
70051;SHT30;57391;51.306;22.680;2023-06-14T22:20:51;15.78;81.17
70051;SHT30;57391;51.306;22.680;2023-06-14T22:23:20;15.80;81.22
70051;SHT30;57391;51.306;22.680;2023-06-14T22:25:47;15.81;81.26
70051;SHT30;57391;51.306;22.680;2023-06-14T22:28:14;15.82;81.21
70051;SHT30;57391;51.306;22.680;2023-06-14T22:30:43;15.79;81.17
70051;SHT30;57391;51.306;22.680;2023-06-14T22:33:11;15.74;81.19
70051;SHT30;57391;51.306;22.680;2023-06-14T22:35:38;15.73;81.23
70051;SHT30;57391;51.306;22.680;2023-06-14T22:38:05;15.71;81.21
70051;SHT30;57391;51.306;22.680;2023-06-14T22:40:34;15.68;81.18
70051;SHT30;57391;51.306;22.680;2023-06-14T22:43:00;15.64;81.13
70051;SHT30;57391;51.306;22.680;2023-06-14T22:45:27;15.60;81.25
70051;SHT30;57391;51.306;22.680;2023-06-14T22:47:55;15.56;81.38
70051;SHT30;57391;51.306;22.680;2023-06-14T22:50:23;15.54;81.44
70051;SHT30;57391;51.306;22.680;2023-06-14T22:52:51;15.52;81.49
70051;SHT30;57391;51.306;22.680;2023-06-14T22:55:18;15.51;81.54
70051;SHT30;57391;51.306;22.680;2023-06-14T22:57:46;15.50;81.62
70051;SHT30;57391;51.306;22.680;2023-06-14T23:00:13;15.49;81.62
70051;SHT30;57391;51.306;22.680;2023-06-14T23:02:41;15.48;81.62
70051;SHT30;57391;51.306;22.680;2023-06-14T23:05:09;15.46;81.67
70051;SHT30;57391;51.306;22.680;2023-06-14T23:07:37;15.46;81.61
70051;SHT30;57391;51.306;22.680;2023-06-14T23:10:06;15.44;81.50
70051;SHT30;57391;51.306;22.680;2023-06-14T23:12:34;15.44;81.40
70051;SHT30;57391;51.306;22.680;2023-06-14T23:15:01;15.42;81.32
70051;SHT30;57391;51.306;22.680;2023-06-14T23:17:30;15.39;81.45
70051;SHT30;57391;51.306;22.680;2023-06-14T23:19:58;15.37;81.66
70051;SHT30;57391;51.306;22.680;2023-06-14T23:22:33;15.37;81.57
70051;SHT30;57391;51.306;22.680;2023-06-14T23:25:02;15.36;81.65
70051;SHT30;57391;51.306;22.680;2023-06-14T23:27:33;15.34;81.95
70051;SHT30;57391;51.306;22.680;2023-06-14T23:30:02;15.33;82.02
70051;SHT30;57391;51.306;22.680;2023-06-14T23:32:30;15.31;82.11
70051;SHT30;57391;51.306;22.680;2023-06-14T23:35:00;15.30;82.11
70051;SHT30;57391;51.306;22.680;2023-06-14T23:37:29;15.27;82.10
70051;SHT30;57391;51.306;22.680;2023-06-14T23:39:59;15.26;82.13
70051;SHT30;57391;51.306;22.680;2023-06-14T23:42:27;15.25;82.17
70051;SHT30;57391;51.306;22.680;2023-06-14T23:44:57;15.25;82.17
70051;SHT30;57391;51.306;22.680;2023-06-14T23:47:28;15.25;82.14
70051;SHT30;57391;51.306;22.680;2023-06-14T23:49:59;15.26;82.11
70051;SHT30;57391;51.306;22.680;2023-06-14T23:52:30;15.25;82.11
70051;SHT30;57391;51.306;22.680;2023-06-14T23:54:58;15.27;82.16
70051;SHT30;57391;51.306;22.680;2023-06-14T23:57:27;15.30;82.20
70051;SHT30;57391;51.306;22.680;2023-06-14T23:59:54;15.31;82.21
